sensor_id;sensor_type;location;lat;lon;timestamp;temperature;humidity
21762;DHT22;11203;50.870;20.682;2022-07-29T00:00:59;15.00;1.00
21762;DHT22;11203;50.870;20.682;2022-07-29T00:03:26;14.90;1.00
21762;DHT22;11203;50.870;20.682;2022-07-29T00:05:52;14.80;1.00
21762;DHT22;11203;50.870;20.682;2022-07-29T00:08:19;14.80;1.00
21762;DHT22;11203;50.870;20.682;2022-07-29T00:10:45;14.70;1.00
21762;DHT22;11203;50.870;20.682;2022-07-29T00:13:11;14.70;1.00
21762;DHT22;11203;50.870;20.682;2022-07-29T00:15:37;14.60;1.00
21762;DHT22;11203;50.870;20.682;2022-07-29T00:18:03;14.60;1.00
21762;DHT22;11203;50.870;20.682;2022-07-29T00:20:29;14.60;1.00
21762;DHT22;11203;50.870;20.682;2022-07-29T00:22:55;14.60;1.00
21762;DHT22;11203;50.870;20.682;2022-07-29T00:25:21;14.50;1.00
21762;DHT22;11203;50.870;20.682;2022-07-29T00:27:56;14.50;1.00
21762;DHT22;11203;50.870;20.682;2022-07-29T00:30:24;14.50;1.00
21762;DHT22;11203;50.870;20.682;2022-07-29T00:32:50;14.40;1.00
21762;DHT22;11203;50.870;20.682;2022-07-29T00:35:16;14.40;1.00
21762;DHT22;11203;50.870;20.682;2022-07-29T00:38:01;14.30;1.00
21762;DHT22;11203;50.870;20.682;2022-07-29T00:40:27;14.20;1.00
21762;DHT22;11203;50.870;20.682;2022-07-29T00:42:53;14.10;1.00
21762;DHT22;11203;50.870;20.682;2022-07-29T00:45:19;14.10;1.00
21762;DHT22;11203;50.870;20.682;2022-07-29T00:47:45;14.10;1.00
21762;DHT22;11203;50.870;20.682;2022-07-29T00:50:13;14.00;99.90
21762;DHT22;11203;50.870;20.682;2022-07-29T00:52:41;14.00;93.10
21762;DHT22;11203;50.870;20.682;2022-07-29T00:55:12;14.00;99.90
21762;DHT22;11203;50.870;20.682;2022-07-29T00:57:42;14.00;99.90
21762;DHT22;11203;50.870;20.682;2022-07-29T01:00:12;14.00;99.90
21762;DHT22;11203;50.870;20.682;2022-07-29T01:02:40;14.00;99.90
21762;DHT22;11203;50.870;20.682;2022-07-29T01:05:06;14.00;99.90
21762;DHT22;11203;50.870;20.682;2022-07-29T01:07:35;14.00;99.90
21762;DHT22;11203;50.870;20.682;2022-07-29T01:10:04;14.10;99.90
21762;DHT22;11203;50.870;20.682;2022-07-29T01:12:33;13.90;99.90
21762;DHT22;11203;50.870;20.682;2022-07-29T01:15:02;13.90;1.00
21762;DHT22;11203;50.870;20.682;2022-07-29T01:28:39;13.80;99.90
21762;DHT22;11203;50.870;20.682;2022-07-29T01:31:20;13.80;99.90
21762;DHT22;11203;50.870;20.682;2022-07-29T01:33:58;13.80;99.90
21762;DHT22;11203;50.870;20.682;2022-07-29T01:36:34;13.70;99.90
21762;DHT22;11203;50.870;20.682;2022-07-29T01:39:16;13.70;99.90
21762;DHT22;11203;50.870;20.682;2022-07-29T01:42:01;13.70;99.90
21762;DHT22;11203;50.870;20.682;2022-07-29T01:44:37;13.60;99.90
21762;DHT22;11203;50.870;20.682;2022-07-29T01:47:20;13.60;1.00
21762;DHT22;11203;50.870;20.682;2022-07-29T01:49:53;13.60;1.00
21762;DHT22;11203;50.870;20.682;2022-07-29T01:52:31;13.50;1.00
21762;DHT22;11203;50.870;20.682;2022-07-29T01:55:06;13.40;1.00
21762;DHT22;11203;50.870;20.682;2022-07-29T01:57:37;13.40;1.00
21762;DHT22;11203;50.870;20.682;2022-07-29T02:00:06;13.40;1.00
21762;DHT22;11203;50.870;20.682;2022-07-29T02:02:33;13.30;1.00
21762;DHT22;11203;50.870;20.682;2022-07-29T02:05:02;13.20;1.00
21762;DHT22;11203;50.870;20.682;2022-07-29T02:07:31;13.20;99.90
21762;DHT22;11203;50.870;20.682;2022-07-29T02:09:59;13.20;1.00
21762;DHT22;11203;50.870;20.682;2022-07-29T02:12:28;13.10;99.90
21762;DHT22;11203;50.870;20.682;2022-07-29T02:14:56;13.10;1.00
21762;DHT22;11203;50.870;20.682;2022-07-29T02:17:29;13.10;99.90
21762;DHT22;11203;50.870;20.682;2022-07-29T02:20:00;13.10;99.90
21762;DHT22;11203;50.870;20.682;2022-07-29T02:22:30;13.10;99.90
21762;DHT22;11203;50.870;20.682;2022-07-29T02:25:00;13.10;21.40
21762;DHT22;11203;50.870;20.682;2022-07-29T02:27:28;13.10;99.90
21762;DHT22;11203;50.870;20.682;2022-07-29T02:29:57;13.10;25.30
21762;DHT22;11203;50.870;20.682;2022-07-29T02:32:26;13.00;99.90
21762;DHT22;11203;50.870;20.682;2022-07-29T02:34:53;12.90;1.00
21762;DHT22;11203;50.870;20.682;2022-07-29T02:37:20;12.70;1.00
21762;DHT22;11203;50.870;20.682;2022-07-29T02:39:47;12.60;1.00
21762;DHT22;11203;50.870;20.682;2022-07-29T02:42:16;12.70;1.00
21762;DHT22;11203;50.870;20.682;2022-07-29T02:44:43;12.70;1.00
21762;DHT22;11203;50.870;20.682;2022-07-29T02:47:27;12.70;99.90
21762;DHT22;11203;50.870;20.682;2022-07-29T02:50:21;12.70;1.00
21762;DHT22;11203;50.870;20.682;2022-07-29T02:53:00;12.70;99.90
21762;DHT22;11203;50.870;20.682;2022-07-29T02:55:37;12.70;99.90
21762;DHT22;11203;50.870;20.682;2022-07-29T02:58:15;12.70;1.00
21762;DHT22;11203;50.870;20.682;2022-07-29T03:00:44;12.70;99.90
21762;DHT22;11203;50.870;20.682;2022-07-29T03:03:15;12.50;99.90
21762;DHT22;11203;50.870;20.682;2022-07-29T03:05:41;12.50;99.90
21762;DHT22;11203;50.870;20.682;2022-07-29T03:08:11;12.50;1.00
21762;DHT22;11203;50.870;20.682;2022-07-29T03:10:39;12.50;99.90
21762;DHT22;11203;50.870;20.682;2022-07-29T03:13:11;12.40;1.00
21762;DHT22;11203;50.870;20.682;2022-07-29T03:15:38;12.40;1.00
21762;DHT22;11203;50.870;20.682;2022-07-29T03:18:06;12.30;99.90
21762;DHT22;11203;50.870;20.682;2022-07-29T03:20:33;12.40;99.90
21762;DHT22;11203;50.870;20.682;2022-07-29T03:23:00;12.40;99.90
21762;DHT22;11203;50.870;20.682;2022-07-29T03:25:26;12.40;1.00
21762;DHT22;11203;50.870;20.682;2022-07-29T03:27:53;12.40;1.00
21762;DHT22;11203;50.870;20.682;2022-07-29T03:30:19;12.40;99.90
21762;DHT22;11203;50.870;20.682;2022-07-29T03:32:45;12.40;1.00
21762;DHT22;11203;50.870;20.682;2022-07-29T03:35:12;12.50;1.00
21762;DHT22;11203;50.870;20.682;2022-07-29T03:37:38;12.50;99.90
21762;DHT22;11203;50.870;20.682;2022-07-29T03:40:07;12.60;1.00
21762;DHT22;11203;50.870;20.682;2022-07-29T03:42:37;12.50;1.00
21762;DHT22;11203;50.870;20.682;2022-07-29T03:45:12;12.50;1.00
21762;DHT22;11203;50.870;20.682;2022-07-29T03:47:43;12.40;1.00
21762;DHT22;11203;50.870;20.682;2022-07-29T03:50:14;12.40;99.90
21762;DHT22;11203;50.870;20.682;2022-07-29T03:52:42;12.40;99.90
21762;DHT22;11203;50.870;20.682;2022-07-29T03:55:09;12.40;79.90
21762;DHT22;11203;50.870;20.682;2022-07-29T03:57:36;12.40;1.00
21762;DHT22;11203;50.870;20.682;2022-07-29T04:00:04;12.40;99.90
21762;DHT22;11203;50.870;20.682;2022-07-29T04:02:32;12.50;99.90
21762;DHT22;11203;50.870;20.682;2022-07-29T04:04:58;12.60;1.00
21762;DHT22;11203;50.870;20.682;2022-07-29T04:07:24;12.60;1.00
21762;DHT22;11203;50.870;20.682;2022-07-29T04:09:50;12.70;1.00
21762;DHT22;11203;50.870;20.682;2022-07-29T04:12:17;12.70;12.10
21762;DHT22;11203;50.870;20.682;2022-07-29T04:14:43;12.80;1.00
21762;DHT22;11203;50.870;20.682;2022-07-29T04:17:09;12.80;99.90
21762;DHT22;11203;50.870;20.682;2022-07-29T04:19:35;12.90;99.90
21762;DHT22;11203;50.870;20.682;2022-07-29T04:22:01;13.00;99.90
21762;DHT22;11203;50.870;20.682;2022-07-29T04:24:27;13.10;99.90
21762;DHT22;11203;50.870;20.682;2022-07-29T04:26:53;13.20;1.00
21762;DHT22;11203;50.870;20.682;2022-07-29T04:29:20;13.30;1.00
21762;DHT22;11203;50.870;20.682;2022-07-29T04:31:46;13.40;1.00
21762;DHT22;11203;50.870;20.682;2022-07-29T04:34:12;13.50;99.90
21762;DHT22;11203;50.870;20.682;2022-07-29T04:36:38;13.60;41.90
21762;DHT22;11203;50.870;20.682;2022-07-29T04:39:04;13.70;1.00
21762;DHT22;11203;50.870;20.682;2022-07-29T04:41:30;13.80;1.00
21762;DHT22;11203;50.870;20.682;2022-07-29T04:43:57;14.00;99.90
21762;DHT22;11203;50.870;20.682;2022-07-29T04:46:23;14.20;1.00
21762;DHT22;11203;50.870;20.682;2022-07-29T04:48:49;14.40;27.50
21762;DHT22;11203;50.870;20.682;2022-07-29T04:51:15;14.60;99.90
21762;DHT22;11203;50.870;20.682;2022-07-29T04:53:41;14.80;1.00
21762;DHT22;11203;50.870;20.682;2022-07-29T04:56:07;15.00;1.00
21762;DHT22;11203;50.870;20.682;2022-07-29T04:58:36;15.30;1.00
21762;DHT22;11203;50.870;20.682;2022-07-29T05:01:03;15.40;1.00
21762;DHT22;11203;50.870;20.682;2022-07-29T05:03:30;15.50;99.90
21762;DHT22;11203;50.870;20.682;2022-07-29T05:05:56;15.70;99.90
21762;DHT22;11203;50.870;20.682;2022-07-29T05:08:22;15.70;1.00
21762;DHT22;11203;50.870;20.682;2022-07-29T05:10:48;15.90;1.00
21762;DHT22;11203;50.870;20.682;2022-07-29T05:13:14;16.00;1.00
21762;DHT22;11203;50.870;20.682;2022-07-29T05:15:40;16.10;1.00
21762;DHT22;11203;50.870;20.682;2022-07-29T05:18:06;16.30;99.90
21762;DHT22;11203;50.870;20.682;2022-07-29T05:20:32;16.30;1.00
21762;DHT22;11203;50.870;20.682;2022-07-29T05:23:00;16.50;1.00
21762;DHT22;11203;50.870;20.682;2022-07-29T05:25:27;16.70;1.00
21762;DHT22;11203;50.870;20.682;2022-07-29T05:27:54;16.90;1.00
21762;DHT22;11203;50.870;20.682;2022-07-29T05:30:21;17.10;1.00
21762;DHT22;11203;50.870;20.682;2022-07-29T05:32:47;17.20;1.00
21762;DHT22;11203;50.870;20.682;2022-07-29T05:35:14;17.40;99.90
21762;DHT22;11203;50.870;20.682;2022-07-29T05:37:40;17.70;99.90
21762;DHT22;11203;50.870;20.682;2022-07-29T05:40:07;17.80;32.10
21762;DHT22;11203;50.870;20.682;2022-07-29T05:42:34;17.90;1.00
21762;DHT22;11203;50.870;20.682;2022-07-29T05:45:02;18.00;1.00
21762;DHT22;11203;50.870;20.682;2022-07-29T05:47:28;18.20;1.00
21762;DHT22;11203;50.870;20.682;2022-07-29T05:49:54;18.20;1.00
21762;DHT22;11203;50.870;20.682;2022-07-29T05:52:21;18.20;1.00
21762;DHT22;11203;50.870;20.682;2022-07-29T05:54:47;18.20;1.00
21762;DHT22;11203;50.870;20.682;2022-07-29T05:57:17;18.30;1.00
21762;DHT22;11203;50.870;20.682;2022-07-29T05:59:45;18.30;1.00
21762;DHT22;11203;50.870;20.682;2022-07-29T06:02:11;18.40;1.00
21762;DHT22;11203;50.870;20.682;2022-07-29T06:04:37;18.50;1.00
21762;DHT22;11203;50.870;20.682;2022-07-29T06:07:03;18.50;1.00
21762;DHT22;11203;50.870;20.682;2022-07-29T06:09:29;18.60;1.00
21762;DHT22;11203;50.870;20.682;2022-07-29T06:11:56;18.60;1.00
21762;DHT22;11203;50.870;20.682;2022-07-29T06:14:23;18.70;1.00
21762;DHT22;11203;50.870;20.682;2022-07-29T06:16:49;18.70;1.00
21762;DHT22;11203;50.870;20.682;2022-07-29T06:19:16;18.80;1.00
21762;DHT22;11203;50.870;20.682;2022-07-29T06:21:42;18.70;1.00
21762;DHT22;11203;50.870;20.682;2022-07-29T06:24:10;18.80;1.00
21762;DHT22;11203;50.870;20.682;2022-07-29T06:26:38;18.80;1.00
21762;DHT22;11203;50.870;20.682;2022-07-29T06:29:05;19.00;1.00
21762;DHT22;11203;50.870;20.682;2022-07-29T06:31:32;19.10;1.00
21762;DHT22;11203;50.870;20.682;2022-07-29T06:33:58;19.10;1.00
21762;DHT22;11203;50.870;20.682;2022-07-29T06:36:24;19.40;1.00
21762;DHT22;11203;50.870;20.682;2022-07-29T06:38:50;19.50;1.00
21762;DHT22;11203;50.870;20.682;2022-07-29T06:41:16;19.60;1.00
21762;DHT22;11203;50.870;20.682;2022-07-29T06:43:44;19.70;1.00
21762;DHT22;11203;50.870;20.682;2022-07-29T06:46:15;19.70;1.00
21762;DHT22;11203;50.870;20.682;2022-07-29T06:48:46;19.80;1.00
21762;DHT22;11203;50.870;20.682;2022-07-29T06:51:13;20.00;1.00
21762;DHT22;11203;50.870;20.682;2022-07-29T06:53:39;20.00;1.00
21762;DHT22;11203;50.870;20.682;2022-07-29T06:56:07;20.00;1.00
21762;DHT22;11203;50.870;20.682;2022-07-29T06:58:38;20.10;1.00
21762;DHT22;11203;50.870;20.682;2022-07-29T07:01:05;20.20;1.00
21762;DHT22;11203;50.870;20.682;2022-07-29T07:03:32;20.10;1.00
21762;DHT22;11203;50.870;20.682;2022-07-29T07:05:59;20.20;1.00
21762;DHT22;11203;50.870;20.682;2022-07-29T07:08:25;20.30;1.00
21762;DHT22;11203;50.870;20.682;2022-07-29T07:10:52;20.40;1.00
21762;DHT22;11203;50.870;20.682;2022-07-29T07:13:19;20.40;1.00
21762;DHT22;11203;50.870;20.682;2022-07-29T07:15:46;20.30;99.90
21762;DHT22;11203;50.870;20.682;2022-07-29T07:18:15;20.40;1.00
21762;DHT22;11203;50.870;20.682;2022-07-29T07:20:41;20.60;1.00
21762;DHT22;11203;50.870;20.682;2022-07-29T07:23:08;20.60;1.00
21762;DHT22;11203;50.870;20.682;2022-07-29T07:25:34;20.70;99.90
21762;DHT22;11203;50.870;20.682;2022-07-29T07:28:00;20.70;99.90
21762;DHT22;11203;50.870;20.682;2022-07-29T07:30:26;20.60;99.90
21762;DHT22;11203;50.870;20.682;2022-07-29T07:32:53;20.70;99.90
21762;DHT22;11203;50.870;20.682;2022-07-29T07:35:19;20.70;99.90
21762;DHT22;11203;50.870;20.682;2022-07-29T07:37:45;20.70;99.90
21762;DHT22;11203;50.870;20.682;2022-07-29T07:40:12;20.80;99.90
21762;DHT22;11203;50.870;20.682;2022-07-29T07:42:39;21.00;99.90
21762;DHT22;11203;50.870;20.682;2022-07-29T07:45:06;20.90;99.90
21762;DHT22;11203;50.870;20.682;2022-07-29T07:47:38;21.00;99.90
21762;DHT22;11203;50.870;20.682;2022-07-29T07:50:06;21.20;99.90
21762;DHT22;11203;50.870;20.682;2022-07-29T07:52:33;21.20;99.90
21762;DHT22;11203;50.870;20.682;2022-07-29T07:55:00;21.30;99.90
21762;DHT22;11203;50.870;20.682;2022-07-29T07:57:27;21.50;99.90
21762;DHT22;11203;50.870;20.682;2022-07-29T07:59:53;21.50;99.90
21762;DHT22;11203;50.870;20.682;2022-07-29T08:02:19;21.50;99.90
21762;DHT22;11203;50.870;20.682;2022-07-29T08:04:45;21.60;99.90
21762;DHT22;11203;50.870;20.682;2022-07-29T08:07:11;21.60;99.90
21762;DHT22;11203;50.870;20.682;2022-07-29T08:09:37;21.80;99.90
21762;DHT22;11203;50.870;20.682;2022-07-29T08:12:03;21.80;99.90
21762;DHT22;11203;50.870;20.682;2022-07-29T08:14:31;21.90;99.90
21762;DHT22;11203;50.870;20.682;2022-07-29T08:16:58;22.00;99.90
21762;DHT22;11203;50.870;20.682;2022-07-29T08:19:24;21.80;99.90
21762;DHT22;11203;50.870;20.682;2022-07-29T08:21:50;21.90;99.90
21762;DHT22;11203;50.870;20.682;2022-07-29T08:24:19;22.10;99.90
21762;DHT22;11203;50.870;20.682;2022-07-29T08:27:05;22.10;99.90
21762;DHT22;11203;50.870;20.682;2022-07-29T08:29:31;22.00;99.90
21762;DHT22;11203;50.870;20.682;2022-07-29T08:31:57;22.00;99.90
21762;DHT22;11203;50.870;20.682;2022-07-29T08:34:23;22.10;99.90
21762;DHT22;11203;50.870;20.682;2022-07-29T08:36:49;22.30;99.90
21762;DHT22;11203;50.870;20.682;2022-07-29T08:39:15;22.30;99.90
21762;DHT22;11203;50.870;20.682;2022-07-29T08:41:41;22.30;99.90
21762;DHT22;11203;50.870;20.682;2022-07-29T08:44:08;22.50;99.90
21762;DHT22;11203;50.870;20.682;2022-07-29T08:46:38;22.60;99.90
21762;DHT22;11203;50.870;20.682;2022-07-29T08:49:04;22.40;99.90
21762;DHT22;11203;50.870;20.682;2022-07-29T08:51:33;22.60;99.90
21762;DHT22;11203;50.870;20.682;2022-07-29T08:54:02;22.50;1.00
21762;DHT22;11203;50.870;20.682;2022-07-29T08:56:29;22.80;99.90
21762;DHT22;11203;50.870;20.682;2022-07-29T08:58:58;22.90;99.90
21762;DHT22;11203;50.870;20.682;2022-07-29T09:01:26;22.70;1.00
21762;DHT22;11203;50.870;20.682;2022-07-29T09:03:56;22.80;99.90
21762;DHT22;11203;50.870;20.682;2022-07-29T09:06:25;22.80;99.90
21762;DHT22;11203;50.870;20.682;2022-07-29T09:08:55;23.00;1.00
21762;DHT22;11203;50.870;20.682;2022-07-29T09:11:25;23.10;1.00
21762;DHT22;11203;50.870;20.682;2022-07-29T09:13:51;23.20;1.00
21762;DHT22;11203;50.870;20.682;2022-07-29T09:16:17;23.30;99.90
21762;DHT22;11203;50.870;20.682;2022-07-29T09:18:44;23.30;1.00
21762;DHT22;11203;50.870;20.682;2022-07-29T09:21:15;23.30;1.00
21762;DHT22;11203;50.870;20.682;2022-07-29T09:24:10;23.50;1.00
21762;DHT22;11203;50.870;20.682;2022-07-29T09:26:45;23.60;1.00
21762;DHT22;11203;50.870;20.682;2022-07-29T09:29:19;23.30;99.90
21762;DHT22;11203;50.870;20.682;2022-07-29T09:31:50;23.20;99.90
21762;DHT22;11203;50.870;20.682;2022-07-29T09:34:28;23.10;99.90
21762;DHT22;11203;50.870;20.682;2022-07-29T09:36:56;23.20;1.00
21762;DHT22;11203;50.870;20.682;2022-07-29T09:41:58;23.50;1.00
21762;DHT22;11203;50.870;20.682;2022-07-29T09:44:26;23.60;1.00
21762;DHT22;11203;50.870;20.682;2022-07-29T09:47:01;23.60;1.00
21762;DHT22;11203;50.870;20.682;2022-07-29T09:49:32;23.70;1.00
21762;DHT22;11203;50.870;20.682;2022-07-29T09:52:07;23.80;1.00
21762;DHT22;11203;50.870;20.682;2022-07-29T09:54:34;23.80;1.00
21762;DHT22;11203;50.870;20.682;2022-07-29T09:57:08;23.70;1.00
21762;DHT22;11203;50.870;20.682;2022-07-29T09:59:38;23.90;99.90
21762;DHT22;11203;50.870;20.682;2022-07-29T10:02:14;23.70;1.00
21762;DHT22;11203;50.870;20.682;2022-07-29T10:04:42;23.90;1.00
21762;DHT22;11203;50.870;20.682;2022-07-29T10:07:08;24.00;1.00
21762;DHT22;11203;50.870;20.682;2022-07-29T10:09:35;23.90;1.00
21762;DHT22;11203;50.870;20.682;2022-07-29T10:12:12;23.70;1.00
21762;DHT22;11203;50.870;20.682;2022-07-29T10:14:42;23.60;1.00
21762;DHT22;11203;50.870;20.682;2022-07-29T10:17:10;23.70;1.00
21762;DHT22;11203;50.870;20.682;2022-07-29T10:19:37;23.90;1.00
21762;DHT22;11203;50.870;20.682;2022-07-29T10:22:08;24.00;99.90
21762;DHT22;11203;50.870;20.682;2022-07-29T10:24:36;23.90;1.00
21762;DHT22;11203;50.870;20.682;2022-07-29T10:27:05;24.00;1.00
21762;DHT22;11203;50.870;20.682;2022-07-29T10:29:33;24.20;1.00
21762;DHT22;11203;50.870;20.682;2022-07-29T10:32:30;24.20;1.00
21762;DHT22;11203;50.870;20.682;2022-07-29T10:43:32;24.50;1.00
21762;DHT22;11203;50.870;20.682;2022-07-29T10:46:03;24.40;1.00
21762;DHT22;11203;50.870;20.682;2022-07-29T10:48:30;24.00;1.00
21762;DHT22;11203;50.870;20.682;2022-07-29T10:53:46;23.90;1.00
21762;DHT22;11203;50.870;20.682;2022-07-29T10:56:28;23.90;1.00
21762;DHT22;11203;50.870;20.682;2022-07-29T11:01:44;24.00;1.00
21762;DHT22;11203;50.870;20.682;2022-07-29T11:04:10;24.10;1.00
21762;DHT22;11203;50.870;20.682;2022-07-29T11:09:28;24.00;99.90
21762;DHT22;11203;50.870;20.682;2022-07-29T11:11:56;24.20;1.00
21762;DHT22;11203;50.870;20.682;2022-07-29T11:14:57;24.40;1.00
21762;DHT22;11203;50.870;20.682;2022-07-29T11:17:24;24.70;1.00
21762;DHT22;11203;50.870;20.682;2022-07-29T11:19:50;24.60;1.00
21762;DHT22;11203;50.870;20.682;2022-07-29T11:22:37;24.90;1.00
21762;DHT22;11203;50.870;20.682;2022-07-29T11:25:16;24.90;1.00
21762;DHT22;11203;50.870;20.682;2022-07-29T11:27:44;24.90;1.00
21762;DHT22;11203;50.870;20.682;2022-07-29T11:30:11;24.70;99.90
21762;DHT22;11203;50.870;20.682;2022-07-29T11:32:42;24.50;99.90
21762;DHT22;11203;50.870;20.682;2022-07-29T11:35:23;24.30;1.00
21762;DHT22;11203;50.870;20.682;2022-07-29T11:38:26;24.30;1.00
21762;DHT22;11203;50.870;20.682;2022-07-29T11:41:25;24.60;1.00
21762;DHT22;11203;50.870;20.682;2022-07-29T11:43:57;24.90;1.00
21762;DHT22;11203;50.870;20.682;2022-07-29T11:46:47;24.90;1.00
21762;DHT22;11203;50.870;20.682;2022-07-29T11:49:21;25.00;1.00
21762;DHT22;11203;50.870;20.682;2022-07-29T11:51:57;25.10;1.00
21762;DHT22;11203;50.870;20.682;2022-07-29T11:54:33;25.30;1.00
21762;DHT22;11203;50.870;20.682;2022-07-29T11:57:00;25.30;1.00
21762;DHT22;11203;50.870;20.682;2022-07-29T11:59:28;25.20;1.00
21762;DHT22;11203;50.870;20.682;2022-07-29T12:01:59;25.10;1.00
21762;DHT22;11203;50.870;20.682;2022-07-29T12:04:25;25.10;1.00
21762;DHT22;11203;50.870;20.682;2022-07-29T12:06:55;25.00;1.00
21762;DHT22;11203;50.870;20.682;2022-07-29T12:09:23;24.90;1.00
21762;DHT22;11203;50.870;20.682;2022-07-29T12:11:56;24.60;1.00
21762;DHT22;11203;50.870;20.682;2022-07-29T12:14:30;24.80;1.00
21762;DHT22;11203;50.870;20.682;2022-07-29T12:16:58;24.80;1.00
21762;DHT22;11203;50.870;20.682;2022-07-29T12:19:26;24.90;1.00
21762;DHT22;11203;50.870;20.682;2022-07-29T12:21:55;25.10;1.00
21762;DHT22;11203;50.870;20.682;2022-07-29T12:24:24;25.20;99.90
21762;DHT22;11203;50.870;20.682;2022-07-29T12:26:59;25.30;99.90
21762;DHT22;11203;50.870;20.682;2022-07-29T12:29:26;25.20;99.90
21762;DHT22;11203;50.870;20.682;2022-07-29T12:31:55;25.10;99.90
21762;DHT22;11203;50.870;20.682;2022-07-29T12:34:23;25.10;99.90
21762;DHT22;11203;50.870;20.682;2022-07-29T12:36:50;25.00;99.90
21762;DHT22;11203;50.870;20.682;2022-07-29T12:39:16;25.00;99.90
21762;DHT22;11203;50.870;20.682;2022-07-29T12:41:43;25.10;99.90
21762;DHT22;11203;50.870;20.682;2022-07-29T12:44:09;25.20;99.90
21762;DHT22;11203;50.870;20.682;2022-07-29T12:46:36;25.20;99.90
21762;DHT22;11203;50.870;20.682;2022-07-29T12:49:03;25.20;99.90
21762;DHT22;11203;50.870;20.682;2022-07-29T12:51:38;25.20;99.90
21762;DHT22;11203;50.870;20.682;2022-07-29T12:54:13;25.10;99.90
21762;DHT22;11203;50.870;20.682;2022-07-29T12:56:42;25.20;99.90
21762;DHT22;11203;50.870;20.682;2022-07-29T12:59:22;25.30;99.90
21762;DHT22;11203;50.870;20.682;2022-07-29T13:01:51;25.20;99.90
21762;DHT22;11203;50.870;20.682;2022-07-29T13:04:27;25.20;99.90
21762;DHT22;11203;50.870;20.682;2022-07-29T13:07:07;25.00;99.90
21762;DHT22;11203;50.870;20.682;2022-07-29T13:09:44;24.80;99.90
21762;DHT22;11203;50.870;20.682;2022-07-29T13:12:14;24.80;99.90
21762;DHT22;11203;50.870;20.682;2022-07-29T13:14:48;24.80;99.90
21762;DHT22;11203;50.870;20.682;2022-07-29T13:17:23;24.60;99.90
21762;DHT22;11203;50.870;20.682;2022-07-29T13:20:06;24.60;99.90
21762;DHT22;11203;50.870;20.682;2022-07-29T13:22:39;24.70;99.90
21762;DHT22;11203;50.870;20.682;2022-07-29T13:25:06;24.80;99.90
21762;DHT22;11203;50.870;20.682;2022-07-29T13:27:35;25.00;99.90
21762;DHT22;11203;50.870;20.682;2022-07-29T13:30:07;25.00;99.90
21762;DHT22;11203;50.870;20.682;2022-07-29T13:32:37;24.90;99.90
21762;DHT22;11203;50.870;20.682;2022-07-29T13:35:06;25.00;99.90
21762;DHT22;11203;50.870;20.682;2022-07-29T13:37:35;25.10;99.90
21762;DHT22;11203;50.870;20.682;2022-07-29T13:40:06;25.20;99.90
21762;DHT22;11203;50.870;20.682;2022-07-29T13:42:36;25.20;99.90
21762;DHT22;11203;50.870;20.682;2022-07-29T13:45:07;25.10;99.90
21762;DHT22;11203;50.870;20.682;2022-07-29T13:47:35;25.00;99.90
21762;DHT22;11203;50.870;20.682;2022-07-29T13:50:02;24.80;99.90
21762;DHT22;11203;50.870;20.682;2022-07-29T13:52:29;24.80;99.90
21762;DHT22;11203;50.870;20.682;2022-07-29T13:54:55;24.60;99.90
21762;DHT22;11203;50.870;20.682;2022-07-29T13:57:22;24.60;99.90
21762;DHT22;11203;50.870;20.682;2022-07-29T13:59:48;24.60;99.90
21762;DHT22;11203;50.870;20.682;2022-07-29T14:02:14;24.50;99.90
21762;DHT22;11203;50.870;20.682;2022-07-29T14:04:40;24.60;99.90
21762;DHT22;11203;50.870;20.682;2022-07-29T14:07:06;24.60;99.90
21762;DHT22;11203;50.870;20.682;2022-07-29T14:09:32;24.50;99.90
21762;DHT22;11203;50.870;20.682;2022-07-29T14:11:58;24.60;99.90
21762;DHT22;11203;50.870;20.682;2022-07-29T14:14:24;24.70;99.90
21762;DHT22;11203;50.870;20.682;2022-07-29T14:16:51;24.60;99.90
21762;DHT22;11203;50.870;20.682;2022-07-29T14:19:16;24.80;99.90
21762;DHT22;11203;50.870;20.682;2022-07-29T14:21:42;24.70;99.90
21762;DHT22;11203;50.870;20.682;2022-07-29T14:24:09;24.70;99.90
21762;DHT22;11203;50.870;20.682;2022-07-29T14:26:35;24.70;99.90
21762;DHT22;11203;50.870;20.682;2022-07-29T14:29:01;24.90;99.90
21762;DHT22;11203;50.870;20.682;2022-07-29T14:31:27;24.70;99.90
21762;DHT22;11203;50.870;20.682;2022-07-29T14:33:53;24.70;99.90
21762;DHT22;11203;50.870;20.682;2022-07-29T14:36:19;24.90;99.90
21762;DHT22;11203;50.870;20.682;2022-07-29T14:38:45;25.00;99.90
21762;DHT22;11203;50.870;20.682;2022-07-29T14:41:11;24.90;99.90
21762;DHT22;11203;50.870;20.682;2022-07-29T14:43:37;25.00;99.90
21762;DHT22;11203;50.870;20.682;2022-07-29T14:46:03;24.80;99.90
21762;DHT22;11203;50.870;20.682;2022-07-29T14:48:29;24.80;99.90
21762;DHT22;11203;50.870;20.682;2022-07-29T14:50:55;24.90;99.90
21762;DHT22;11203;50.870;20.682;2022-07-29T14:53:22;24.70;99.90
21762;DHT22;11203;50.870;20.682;2022-07-29T14:55:48;24.70;99.90
21762;DHT22;11203;50.870;20.682;2022-07-29T14:58:14;24.80;99.90
21762;DHT22;11203;50.870;20.682;2022-07-29T15:00:41;24.70;99.90
21762;DHT22;11203;50.870;20.682;2022-07-29T15:03:06;24.80;99.90
21762;DHT22;11203;50.870;20.682;2022-07-29T15:05:35;24.80;99.90
21762;DHT22;11203;50.870;20.682;2022-07-29T15:08:02;24.90;99.90
21762;DHT22;11203;50.870;20.682;2022-07-29T15:10:28;25.00;99.90
21762;DHT22;11203;50.870;20.682;2022-07-29T15:12:55;25.10;99.90
21762;DHT22;11203;50.870;20.682;2022-07-29T15:15:21;25.20;99.90
21762;DHT22;11203;50.870;20.682;2022-07-29T15:17:47;25.20;99.90
21762;DHT22;11203;50.870;20.682;2022-07-29T15:20:13;25.10;99.90
21762;DHT22;11203;50.870;20.682;2022-07-29T15:22:40;25.00;99.90
21762;DHT22;11203;50.870;20.682;2022-07-29T15:25:07;25.10;99.90
21762;DHT22;11203;50.870;20.682;2022-07-29T15:27:33;25.20;99.90
21762;DHT22;11203;50.870;20.682;2022-07-29T15:29:59;25.00;99.90
21762;DHT22;11203;50.870;20.682;2022-07-29T15:32:25;25.10;99.90
21762;DHT22;11203;50.870;20.682;2022-07-29T15:34:51;25.00;99.90
21762;DHT22;11203;50.870;20.682;2022-07-29T15:37:17;25.20;99.90
21762;DHT22;11203;50.870;20.682;2022-07-29T15:39:43;24.90;99.90
21762;DHT22;11203;50.870;20.682;2022-07-29T15:42:09;24.90;99.90
21762;DHT22;11203;50.870;20.682;2022-07-29T15:44:36;25.00;99.90
21762;DHT22;11203;50.870;20.682;2022-07-29T15:47:02;24.90;99.90
21762;DHT22;11203;50.870;20.682;2022-07-29T15:49:36;25.00;99.90
21762;DHT22;11203;50.870;20.682;2022-07-29T15:52:05;25.20;99.90
21762;DHT22;11203;50.870;20.682;2022-07-29T15:54:34;24.90;99.90
21762;DHT22;11203;50.870;20.682;2022-07-29T15:57:01;25.20;99.90
21762;DHT22;11203;50.870;20.682;2022-07-29T15:59:28;25.10;99.90
21762;DHT22;11203;50.870;20.682;2022-07-29T16:01:54;25.10;99.90
21762;DHT22;11203;50.870;20.682;2022-07-29T16:04:20;25.20;99.90